sensor_id;sensor_type;location;lat;lon;timestamp;pressure;altitude;pressure_sealevel;temperature;humidity
68594;BME280;55563;52.416;13.548;2022-09-01T00:01:23;101882.78;;;14.80;86.98
68594;BME280;55563;52.416;13.548;2022-09-01T00:03:26;101887.38;;;14.95;86.01
68594;BME280;55563;52.416;13.548;2022-09-01T00:05:27;101885.22;;;14.92;86.24
68594;BME280;55563;52.416;13.548;2022-09-01T00:07:29;101891.59;;;14.91;86.21
68594;BME280;55563;52.416;13.548;2022-09-01T00:09:31;101891.25;;;14.77;86.89
68594;BME280;55563;52.416;13.548;2022-09-01T00:11:32;101883.63;;;14.86;86.44
68594;BME280;55563;52.416;13.548;2022-09-01T00:13:33;101889.72;;;14.86;86.24
68594;BME280;55563;52.416;13.548;2022-09-01T00:15:34;101887.06;;;14.86;86.26
68594;BME280;55563;52.416;13.548;2022-09-01T00:17:35;101891.25;;;14.77;86.82
68594;BME280;55563;52.416;13.548;2022-09-01T00:19:36;101884.84;;;14.73;86.86
68594;BME280;55563;52.416;13.548;2022-09-01T00:21:41;101883.56;;;14.75;86.71
68594;BME280;55563;52.416;13.548;2022-09-01T00:23:42;101894.91;;;14.71;87.77
68594;BME280;55563;52.416;13.548;2022-09-01T00:25:42;101891.38;;;14.60;87.63
68594;BME280;55563;52.416;13.548;2022-09-01T00:27:43;101883.28;;;14.72;86.97
68594;BME280;55563;52.416;13.548;2022-09-01T00:29:44;101887.69;;;14.61;87.24
68594;BME280;55563;52.416;13.548;2022-09-01T00:31:45;101884.47;;;14.54;87.79
68594;BME280;55563;52.416;13.548;2022-09-01T00:33:47;101882.72;;;14.70;86.98
68594;BME280;55563;52.416;13.548;2022-09-01T00:35:47;101887.44;;;14.63;87.33
68594;BME280;55563;52.416;13.548;2022-09-01T00:37:48;101892.03;;;14.77;86.28
68594;BME280;55563;52.416;13.548;2022-09-01T00:39:49;101880.63;;;14.72;86.03
68594;BME280;55563;52.416;13.548;2022-09-01T00:41:49;101886.16;;;14.70;86.12
68594;BME280;55563;52.416;13.548;2022-09-01T00:43:53;101880.00;;;14.60;86.33
68594;BME280;55563;52.416;13.548;2022-09-01T00:45:55;101885.00;;;14.56;86.31
68594;BME280;55563;52.416;13.548;2022-09-01T00:47:57;101881.13;;;14.69;85.40
68594;BME280;55563;52.416;13.548;2022-09-01T00:49:58;101873.94;;;14.64;85.59
68594;BME280;55563;52.416;13.548;2022-09-01T00:52:04;101874.16;;;14.53;86.22
68594;BME280;55563;52.416;13.548;2022-09-01T00:54:07;101874.69;;;14.55;86.51
68594;BME280;55563;52.416;13.548;2022-09-01T00:56:12;101873.13;;;14.59;85.83
68594;BME280;55563;52.416;13.548;2022-09-01T00:58:13;101879.44;;;14.53;86.19
68594;BME280;55563;52.416;13.548;2022-09-01T01:00:18;101877.56;;;14.53;86.94
68594;BME280;55563;52.416;13.548;2022-09-01T01:02:19;101880.22;;;14.53;86.33
68594;BME280;55563;52.416;13.548;2022-09-01T01:04:20;101868.81;;;14.48;86.77
68594;BME280;55563;52.416;13.548;2022-09-01T01:06:21;101875.50;;;14.60;86.34
68594;BME280;55563;52.416;13.548;2022-09-01T01:08:29;101874.16;;;14.53;86.17
68594;BME280;55563;52.416;13.548;2022-09-01T01:10:36;101869.38;;;14.55;85.98
68594;BME280;55563;52.416;13.548;2022-09-01T01:12:38;101873.81;;;14.44;86.90
68594;BME280;55563;52.416;13.548;2022-09-01T01:14:39;101864.06;;;14.50;86.62
68594;BME280;55563;52.416;13.548;2022-09-01T01:16:44;101864.56;;;14.47;86.09
68594;BME280;55563;52.416;13.548;2022-09-01T01:18:45;101868.81;;;14.48;86.39
68594;BME280;55563;52.416;13.548;2022-09-01T01:20:46;101863.84;;;14.56;85.68
68594;BME280;55563;52.416;13.548;2022-09-01T01:23:20;101867.72;;;14.44;86.48
68594;BME280;55563;52.416;13.548;2022-09-01T01:25:24;101867.97;;;14.42;86.73
68594;BME280;55563;52.416;13.548;2022-09-01T01:27:30;101870.38;;;14.49;86.43
68594;BME280;55563;52.416;13.548;2022-09-01T01:29:34;101873.75;;;14.39;87.01
68594;BME280;55563;52.416;13.548;2022-09-01T01:31:37;101873.31;;;14.47;86.25
68594;BME280;55563;52.416;13.548;2022-09-01T01:33:42;101872.03;;;14.55;85.91
68594;BME280;55563;52.416;13.548;2022-09-01T01:35:45;101872.50;;;14.47;86.69
68594;BME280;55563;52.416;13.548;2022-09-01T01:37:47;101870.59;;;14.37;87.31
68594;BME280;55563;52.416;13.548;2022-09-01T01:39:50;101868.41;;;14.34;87.86
68594;BME280;55563;52.416;13.548;2022-09-01T01:41:52;101863.97;;;14.39;87.43
68594;BME280;55563;52.416;13.548;2022-09-01T01:43:58;101869.59;;;14.43;87.12
68594;BME280;55563;52.416;13.548;2022-09-01T01:46:00;101866.63;;;14.39;87.20
68594;BME280;55563;52.416;13.548;2022-09-01T01:48:07;101860.00;;;14.37;87.56
68594;BME280;55563;52.416;13.548;2022-09-01T01:50:10;101868.22;;;14.40;87.23
68594;BME280;55563;52.416;13.548;2022-09-01T01:52:12;101864.66;;;14.30;87.83
68594;BME280;55563;52.416;13.548;2022-09-01T01:54:18;101867.88;;;14.32;87.51
68594;BME280;55563;52.416;13.548;2022-09-01T01:56:21;101863.88;;;14.29;88.09
68594;BME280;55563;52.416;13.548;2022-09-01T01:58:25;101868.81;;;14.21;88.83
68594;BME280;55563;52.416;13.548;2022-09-01T02:00:30;101864.91;;;14.23;89.02
68594;BME280;55563;52.416;13.548;2022-09-01T02:02:57;101862.44;;;14.17;89.10
68594;BME280;55563;52.416;13.548;2022-09-01T02:04:59;101861.69;;;14.21;88.96
68594;BME280;55563;52.416;13.548;2022-09-01T02:07:00;101858.56;;;14.24;88.65
68594;BME280;55563;52.416;13.548;2022-09-01T02:09:01;101863.88;;;14.29;88.49
68594;BME280;55563;52.416;13.548;2022-09-01T02:11:04;101867.22;;;14.20;89.22
68594;BME280;55563;52.416;13.548;2022-09-01T02:13:05;101860.28;;;14.09;90.42
68594;BME280;55563;52.416;13.548;2022-09-01T02:15:07;101856.59;;;14.10;90.11
68594;BME280;55563;52.416;13.548;2022-09-01T02:17:12;101865.81;;;14.07;90.34
68594;BME280;55563;52.416;13.548;2022-09-01T02:19:13;101860.31;;;14.14;90.52
68594;BME280;55563;52.416;13.548;2022-09-01T02:21:16;101867.34;;;14.03;90.80
68594;BME280;55563;52.416;13.548;2022-09-01T02:23:20;101857.72;;;14.19;90.14
68594;BME280;55563;52.416;13.548;2022-09-01T02:25:23;101864.28;;;14.16;89.98
68594;BME280;55563;52.416;13.548;2022-09-01T02:27:26;101869.00;;;14.09;90.95
68594;BME280;55563;52.416;13.548;2022-09-01T02:29:29;101868.25;;;14.14;90.74
68594;BME280;55563;52.416;13.548;2022-09-01T02:31:31;101866.84;;;14.06;91.01
68594;BME280;55563;52.416;13.548;2022-09-01T02:33:35;101856.91;;;14.18;90.52
68594;BME280;55563;52.416;13.548;2022-09-01T02:35:38;101854.94;;;14.04;91.42
68594;BME280;55563;52.416;13.548;2022-09-01T02:37:39;101850.47;;;14.04;91.68
68594;BME280;55563;52.416;13.548;2022-09-01T02:39:42;101852.13;;;14.15;91.24
68594;BME280;55563;52.416;13.548;2022-09-01T02:41:43;101848.00;;;13.97;92.59
68594;BME280;55563;52.416;13.548;2022-09-01T02:43:44;101852.50;;;13.97;92.44
68594;BME280;55563;52.416;13.548;2022-09-01T02:46:07;101848.06;;;14.03;92.28
68594;BME280;55563;52.416;13.548;2022-09-01T02:48:09;101859.56;;;13.91;93.09
68594;BME280;55563;52.416;13.548;2022-09-01T02:50:11;101845.56;;;13.91;93.23
68594;BME280;55563;52.416;13.548;2022-09-01T02:52:14;101850.56;;;13.87;93.73
68594;BME280;55563;52.416;13.548;2022-09-01T02:54:17;101851.66;;;13.91;93.31
68594;BME280;55563;52.416;13.548;2022-09-01T02:56:20;101854.00;;;13.88;93.90
68594;BME280;55563;52.416;13.548;2022-09-01T02:58:25;101850.81;;;13.86;93.89
68594;BME280;55563;52.416;13.548;2022-09-01T03:00:27;101848.94;;;13.86;93.75
68594;BME280;55563;52.416;13.548;2022-09-01T03:02:31;101852.63;;;13.80;94.22
68594;BME280;55563;52.416;13.548;2022-09-01T03:04:36;101845.44;;;13.76;94.60
68594;BME280;55563;52.416;13.548;2022-09-01T03:06:37;101851.81;;;13.80;94.43
68594;BME280;55563;52.416;13.548;2022-09-01T03:08:39;101848.41;;;13.58;95.80
68594;BME280;55563;52.416;13.548;2022-09-01T03:10:43;101850.44;;;13.50;96.42
68594;BME280;55563;52.416;13.548;2022-09-01T03:12:46;101852.69;;;13.64;95.49
68594;BME280;55563;52.416;13.548;2022-09-01T03:14:46;101852.78;;;13.47;96.77
68594;BME280;55563;52.416;13.548;2022-09-01T03:16:48;101845.16;;;13.50;96.65
68594;BME280;55563;52.416;13.548;2022-09-01T03:18:50;101851.47;;;13.23;98.26
68594;BME280;55563;52.416;13.548;2022-09-01T03:20:52;101852.78;;;13.25;98.37
68594;BME280;55563;52.416;13.548;2022-09-01T03:22:53;101851.88;;;13.36;97.79
68594;BME280;55563;52.416;13.548;2022-09-01T03:24:56;101854.94;;;13.50;96.54
68594;BME280;55563;52.416;13.548;2022-09-01T03:26:58;101855.00;;;13.33;97.29
68594;BME280;55563;52.416;13.548;2022-09-01T03:29:02;101853.53;;;13.21;98.28
68594;BME280;55563;52.416;13.548;2022-09-01T03:31:03;101852.94;;;13.14;98.50
68594;BME280;55563;52.416;13.548;2022-09-01T03:33:06;101854.09;;;13.23;98.33
68594;BME280;55563;52.416;13.548;2022-09-01T03:35:07;101858.38;;;13.29;97.90
68594;BME280;55563;52.416;13.548;2022-09-01T03:37:08;101853.63;;;13.09;99.26
68594;BME280;55563;52.416;13.548;2022-09-01T03:39:10;101852.06;;;12.91;99.58
68594;BME280;55563;52.416;13.548;2022-09-01T03:41:11;101848.25;;;12.82;100.00
68594;BME280;55563;52.416;13.548;2022-09-01T03:43:12;101857.69;;;12.61;100.00
68594;BME280;55563;52.416;13.548;2022-09-01T03:45:15;101856.13;;;12.60;100.00
68594;BME280;55563;52.416;13.548;2022-09-01T03:47:16;101859.50;;;12.56;100.00
68594;BME280;55563;52.416;13.548;2022-09-01T03:49:18;101853.28;;;12.84;100.00
68594;BME280;55563;52.416;13.548;2022-09-01T03:51:23;101860.53;;;12.55;100.00
68594;BME280;55563;52.416;13.548;2022-09-01T03:53:25;101851.97;;;12.48;100.00
68594;BME280;55563;52.416;13.548;2022-09-01T03:55:32;101855.72;;;12.52;100.00
68594;BME280;55563;52.416;13.548;2022-09-01T03:57:33;101849.41;;;12.70;100.00
68594;BME280;55563;52.416;13.548;2022-09-01T03:59:36;101850.38;;;12.47;100.00
68594;BME280;55563;52.416;13.548;2022-09-01T04:01:44;101852.53;;;12.50;100.00
68594;BME280;55563;52.416;13.548;2022-09-01T04:03:46;101844.94;;;12.70;100.00
68594;BME280;55563;52.416;13.548;2022-09-01T04:05:52;101850.94;;;12.49;100.00
68594;BME280;55563;52.416;13.548;2022-09-01T04:07:55;101853.34;;;12.50;100.00
68594;BME280;55563;52.416;13.548;2022-09-01T04:09:57;101847.50;;;12.32;100.00
68594;BME280;55563;52.416;13.548;2022-09-01T04:11:57;101855.41;;;12.32;100.00
68594;BME280;55563;52.416;13.548;2022-09-01T04:13:59;101851.16;;;12.47;100.00
68594;BME280;55563;52.416;13.548;2022-09-01T04:16:01;101846.13;;;12.29;100.00
68594;BME280;55563;52.416;13.548;2022-09-01T04:18:11;101856.22;;;12.32;100.00
68594;BME280;55563;52.416;13.548;2022-09-01T04:20:21;101858.25;;;12.13;100.00
68594;BME280;55563;52.416;13.548;2022-09-01T04:22:23;101856.25;;;12.04;100.00
68594;BME280;55563;52.416;13.548;2022-09-01T04:24:30;101845.75;;;12.20;100.00
68594;BME280;55563;52.416;13.548;2022-09-01T04:26:32;101854.34;;;12.33;100.00
68594;BME280;55563;52.416;13.548;2022-09-01T04:28:37;101859.88;;;12.14;100.00
68594;BME280;55563;52.416;13.548;2022-09-01T04:30:54;101853.56;;;12.15;100.00
68594;BME280;55563;52.416;13.548;2022-09-01T04:32:57;101853.91;;;12.36;100.00
68594;BME280;55563;52.416;13.548;2022-09-01T04:34:58;101853.97;;;12.07;100.00
68594;BME280;55563;52.416;13.548;2022-09-01T04:36:58;101847.94;;;11.95;100.00
68594;BME280;55563;52.416;13.548;2022-09-01T04:39:00;101853.16;;;12.07;100.00
68594;BME280;55563;52.416;13.548;2022-09-01T04:41:04;101859.97;;;12.36;100.00
68594;BME280;55563;52.416;13.548;2022-09-01T04:43:06;101859.56;;;12.11;100.00
68594;BME280;55563;52.416;13.548;2022-09-01T04:45:08;101859.88;;;12.48;100.00
68594;BME280;55563;52.416;13.548;2022-09-01T04:47:11;101857.25;;;12.31;100.00
68594;BME280;55563;52.416;13.548;2022-09-01T04:49:19;101861.50;;;12.32;100.00
68594;BME280;55563;52.416;13.548;2022-09-01T04:51:22;101862.44;;;12.26;100.00
68594;BME280;55563;52.416;13.548;2022-09-01T04:53:28;101860.22;;;12.18;100.00
68594;BME280;55563;52.416;13.548;2022-09-01T04:55:29;101860.84;;;12.42;100.00
68594;BME280;55563;52.416;13.548;2022-09-01T04:57:30;101863.31;;;12.32;100.00
68594;BME280;55563;52.416;13.548;2022-09-01T04:59:31;101861.25;;;12.17;100.00
68594;BME280;55563;52.416;13.548;2022-09-01T05:01:34;101864.75;;;12.39;100.00
68594;BME280;55563;52.416;13.548;2022-09-01T05:03:50;101867.47;;;12.44;100.00
68594;BME280;55563;52.416;13.548;2022-09-01T05:06:15;101865.88;;;12.43;100.00
68594;BME280;55563;52.416;13.548;2022-09-01T05:08:21;101868.59;;;12.32;100.00
68594;BME280;55563;52.416;13.548;2022-09-01T05:10:23;101861.88;;;12.41;100.00
68594;BME280;55563;52.416;13.548;2022-09-01T05:12:43;101867.31;;;12.51;100.00
68594;BME280;55563;52.416;13.548;2022-09-01T05:14:46;101863.56;;;12.47;100.00
68594;BME280;55563;52.416;13.548;2022-09-01T05:16:55;101865.00;;;12.54;100.00
68594;BME280;55563;52.416;13.548;2022-09-01T05:18:56;101866.34;;;12.40;100.00
68594;BME280;55563;52.416;13.548;2022-09-01T05:21:04;101863.84;;;12.67;100.00
68594;BME280;55563;52.416;13.548;2022-09-01T05:23:11;101850.59;;;12.79;100.00
68594;BME280;55563;52.416;13.548;2022-09-01T05:25:12;101861.16;;;13.00;99.78
68594;BME280;55563;52.416;13.548;2022-09-01T05:27:17;101860.72;;;13.25;98.93
68594;BME280;55563;52.416;13.548;2022-09-01T05:29:18;101858.44;;;13.34;98.73
68594;BME280;55563;52.416;13.548;2022-09-01T05:31:26;101857.03;;;14.02;94.90
68594;BME280;55563;52.416;13.548;2022-09-01T05:33:27;101858.09;;;14.32;92.84
68594;BME280;55563;52.416;13.548;2022-09-01T05:35:29;101854.44;;;15.27;87.45
68594;BME280;55563;52.416;13.548;2022-09-01T05:37:31;101853.03;;;15.10;88.59
68594;BME280;55563;52.416;13.548;2022-09-01T05:39:33;101857.47;;;14.52;91.54
68594;BME280;55563;52.416;13.548;2022-09-01T05:41:38;101862.53;;;15.73;85.36
68594;BME280;55563;52.416;13.548;2022-09-01T05:43:41;101863.03;;;15.65;84.47
68594;BME280;55563;52.416;13.548;2022-09-01T05:45:47;101870.44;;;14.96;86.79
68594;BME280;55563;52.416;13.548;2022-09-01T05:47:49;101872.34;;;15.73;85.31
68594;BME280;55563;52.416;13.548;2022-09-01T05:49:51;101871.59;;;16.33;83.16
68594;BME280;55563;52.416;13.548;2022-09-01T05:51:53;101872.66;;;16.22;82.98
68594;BME280;55563;52.416;13.548;2022-09-01T05:53:56;101874.53;;;16.62;80.06
68594;BME280;55563;52.416;13.548;2022-09-01T05:56:00;101875.28;;;16.57;80.80
68594;BME280;55563;52.416;13.548;2022-09-01T05:58:06;101873.72;;;16.05;82.11
68594;BME280;55563;52.416;13.548;2022-09-01T06:00:10;101870.00;;;16.52;81.26
68594;BME280;55563;52.416;13.548;2022-09-01T06:02:16;101871.25;;;16.95;77.00
68594;BME280;55563;52.416;13.548;2022-09-01T06:04:18;101871.41;;;17.29;75.80
68594;BME280;55563;52.416;13.548;2022-09-01T06:06:21;101869.78;;;18.55;71.67
68594;BME280;55563;52.416;13.548;2022-09-01T06:08:24;101871.69;;;17.22;76.65
68594;BME280;55563;52.416;13.548;2022-09-01T06:10:28;101876.75;;;18.17;72.70
68594;BME280;55563;52.416;13.548;2022-09-01T06:12:30;101870.84;;;19.25;70.19
68594;BME280;55563;52.416;13.548;2022-09-01T06:14:30;101884.34;;;19.34;68.97
68594;BME280;55563;52.416;13.548;2022-09-01T06:16:31;101876.63;;;19.56;67.17
68594;BME280;55563;52.416;13.548;2022-09-01T06:18:32;101889.81;;;21.09;63.51
68594;BME280;55563;52.416;13.548;2022-09-01T06:20:38;101883.78;;;20.30;64.78
68594;BME280;55563;52.416;13.548;2022-09-01T06:22:39;101877.84;;;18.97;67.41
68594;BME280;55563;52.416;13.548;2022-09-01T06:24:40;101883.81;;;20.25;65.57
68594;BME280;55563;52.416;13.548;2022-09-01T06:26:41;101880.06;;;19.94;65.93
68594;BME280;55563;52.416;13.548;2022-09-01T06:28:46;101888.59;;;20.74;63.00
68594;BME280;55563;52.416;13.548;2022-09-01T06:30:47;101885.75;;;20.38;64.97
68594;BME280;55563;52.416;13.548;2022-09-01T06:32:50;101892.66;;;21.40;61.35
68594;BME280;55563;52.416;13.548;2022-09-01T06:34:51;101885.44;;;21.00;62.79
68594;BME280;55563;52.416;13.548;2022-09-01T06:36:52;101882.09;;;19.22;67.86
68594;BME280;55563;52.416;13.548;2022-09-01T06:38:54;101882.28;;;20.06;64.69
68594;BME280;55563;52.416;13.548;2022-09-01T06:40:59;101887.94;;;21.10;61.77
68594;BME280;55563;52.416;13.548;2022-09-01T06:43:00;101887.97;;;20.50;61.79
68594;BME280;55563;52.416;13.548;2022-09-01T06:45:08;101882.13;;;19.41;66.70
68594;BME280;55563;52.416;13.548;2022-09-01T06:47:09;101884.91;;;21.52;61.08
68594;BME280;55563;52.416;13.548;2022-09-01T06:49:10;101889.09;;;21.04;61.85
68594;BME280;55563;52.416;13.548;2022-09-01T06:51:16;101892.94;;;22.33;59.58
68594;BME280;55563;52.416;13.548;2022-09-01T06:53:17;101887.00;;;23.06;55.59
68594;BME280;55563;52.416;13.548;2022-09-01T06:55:20;101879.97;;;24.22;52.70
68594;BME280;55563;52.416;13.548;2022-09-01T06:57:21;101893.09;;;23.72;53.86
68594;BME280;55563;52.416;13.548;2022-09-01T06:59:27;101888.13;;;22.21;56.47
68594;BME280;55563;52.416;13.548;2022-09-01T07:01:32;101884.75;;;22.07;58.99
68594;BME280;55563;52.416;13.548;2022-09-01T07:03:33;101884.00;;;21.57;57.18
68594;BME280;55563;52.416;13.548;2022-09-01T07:05:48;101886.06;;;22.71;53.27
68594;BME280;55563;52.416;13.548;2022-09-01T07:07:54;101883.00;;;22.95;54.67
68594;BME280;55563;52.416;13.548;2022-09-01T07:10:14;101885.81;;;22.28;55.09
68594;BME280;55563;52.416;13.548;2022-09-01T07:12:21;101892.94;;;24.03;51.60
68594;BME280;55563;52.416;13.548;2022-09-01T07:14:23;101892.19;;;24.95;49.55
68594;BME280;55563;52.416;13.548;2022-09-01T07:16:27;101886.91;;;24.23;50.04
68594;BME280;55563;52.416;13.548;2022-09-01T07:18:30;101887.03;;;21.28;57.98
68594;BME280;55563;52.416;13.548;2022-09-01T07:20:31;101893.06;;;21.47;57.70
68594;BME280;55563;52.416;13.548;2022-09-01T07:22:38;101886.91;;;20.92;59.94
68594;BME280;55563;52.416;13.548;2022-09-01T07:24:39;101889.00;;;21.09;62.21
68594;BME280;55563;52.416;13.548;2022-09-01T07:26:59;101886.69;;;20.29;63.95
68594;BME280;55563;52.416;13.548;2022-09-01T07:29:02;101887.41;;;19.46;65.99
68594;BME280;55563;52.416;13.548;2022-09-01T07:31:05;101889.22;;;18.21;69.65
68594;BME280;55563;52.416;13.548;2022-09-01T07:33:08;101891.28;;;19.11;65.45
68594;BME280;55563;52.416;13.548;2022-09-01T07:35:15;101895.63;;;19.87;63.29
68594;BME280;55563;52.416;13.548;2022-09-01T07:37:17;101893.97;;;21.15;59.53
68594;BME280;55563;52.416;13.548;2022-09-01T07:39:22;101888.78;;;19.81;63.63
68594;BME280;55563;52.416;13.548;2022-09-01T07:41:43;101885.44;;;18.85;68.44
68594;BME280;55563;52.416;13.548;2022-09-01T07:44:04;101881.13;;;19.37;64.18
68594;BME280;55563;52.416;13.548;2022-09-01T07:46:24;101889.44;;;19.30;65.60
68594;BME280;55563;52.416;13.548;2022-09-01T07:48:27;101877.94;;;19.35;63.81
68594;BME280;55563;52.416;13.548;2022-09-01T07:50:28;101875.59;;;19.52;65.49
68594;BME280;55563;52.416;13.548;2022-09-01T07:52:32;101881.44;;;19.30;66.06
68594;BME280;55563;52.416;13.548;2022-09-01T07:54:35;101891.09;;;20.71;60.47
68594;BME280;55563;52.416;13.548;2022-09-01T07:56:37;101884.78;;;22.38;56.41
68594;BME280;55563;52.416;13.548;2022-09-01T07:58:40;101890.84;;;21.49;56.64
68594;BME280;55563;52.416;13.548;2022-09-01T08:00:43;101890.44;;;21.92;57.26
68594;BME280;55563;52.416;13.548;2022-09-01T08:02:45;101896.44;;;20.38;60.43
68594;BME280;55563;52.416;13.548;2022-09-01T08:04:48;101899.53;;;21.19;59.26
68594;BME280;55563;52.416;13.548;2022-09-01T08:06:50;101895.53;;;21.44;59.00
68594;BME280;55563;52.416;13.548;2022-09-01T08:08:53;101882.31;;;20.19;59.84
68594;BME280;55563;52.416;13.548;2022-09-01T08:10:55;101897.69;;;20.73;61.48
68594;BME280;55563;52.416;13.548;2022-09-01T08:12:56;101899.75;;;20.63;57.20
68594;BME280;55563;52.416;13.548;2022-09-01T08:14:57;101898.91;;;20.81;61.65
68594;BME280;55563;52.416;13.548;2022-09-01T08:16:57;101904.38;;;20.43;59.16
68594;BME280;55563;52.416;13.548;2022-09-01T08:18:59;101896.94;;;20.08;57.66
68594;BME280;55563;52.416;13.548;2022-09-01T08:21:07;101898.38;;;20.52;59.01
68594;BME280;55563;52.416;13.548;2022-09-01T08:23:21;101900.16;;;20.05;60.29
68594;BME280;55563;52.416;13.548;2022-09-01T08:25:26;101888.09;;;20.26;59.32
68594;BME280;55563;52.416;13.548;2022-09-01T08:27:28;101897.03;;;20.35;59.15
68594;BME280;55563;52.416;13.548;2022-09-01T08:29:29;101893.38;;;21.05;54.60
68594;BME280;55563;52.416;13.548;2022-09-01T08:31:30;101894.72;;;20.61;57.41
68594;BME280;55563;52.416;13.548;2022-09-01T08:33:30;101898.16;;;19.97;62.16
68594;BME280;55563;52.416;13.548;2022-09-01T08:35:37;101894.25;;;19.28;60.40
68594;BME280;55563;52.416;13.548;2022-09-01T08:37:38;101889.56;;;19.44;62.26
68594;BME280;55563;52.416;13.548;2022-09-01T08:39:40;101900.88;;;20.11;59.86
68594;BME280;55563;52.416;13.548;2022-09-01T08:42:06;101898.72;;;20.13;59.05
68594;BME280;55563;52.416;13.548;2022-09-01T08:46:26;101892.44;;;20.22;59.27
68594;BME280;55563;52.416;13.548;2022-09-01T08:48:37;101888.72;;;19.48;60.80
68594;BME280;55563;52.416;13.548;2022-09-01T08:50:39;101891.91;;;20.20;58.83
68594;BME280;55563;52.416;13.548;2022-09-01T08:53:20;101890.31;;;19.68;60.18
68594;BME280;55563;52.416;13.548;2022-09-01T08:55:27;101891.56;;;19.76;58.89
68594;BME280;55563;52.416;13.548;2022-09-01T08:59:45;101892.88;;;20.11;58.09
68594;BME280;55563;52.416;13.548;2022-09-01T09:07:04;101896.16;;;21.27;56.15
68594;BME280;55563;52.416;13.548;2022-09-01T09:09:10;101889.59;;;20.65;59.14
68594;BME280;55563;52.416;13.548;2022-09-01T09:11:32;101884.94;;;20.57;55.53
68594;BME280;55563;52.416;13.548;2022-09-01T09:13:59;101890.16;;;20.29;55.83
68594;BME280;55563;52.416;13.548;2022-09-01T09:16:07;101888.78;;;20.64;54.89
68594;BME280;55563;52.416;13.548;2022-09-01T09:18:32;101883.59;;;20.40;54.34
68594;BME280;55563;52.416;13.548;2022-09-01T09:20:36;101895.16;;;21.23;55.28
68594;BME280;55563;52.416;13.548;2022-09-01T09:22:37;101887.06;;;21.14;53.56
68594;BME280;55563;52.416;13.548;2022-09-01T09:25:01;101888.69;;;20.83;51.16
68594;BME280;55563;52.416;13.548;2022-09-01T09:27:02;101888.97;;;20.22;52.50
68594;BME280;55563;52.416;13.548;2022-09-01T09:29:03;101893.06;;;20.65;49.17
68594;BME280;55563;52.416;13.548;2022-09-01T09:31:28;101895.53;;;20.75;49.67
68594;BME280;55563;52.416;13.548;2022-09-01T09:33:35;101881.31;;;20.15;50.62
68594;BME280;55563;52.416;13.548;2022-09-01T09:35:39;101885.13;;;20.60;49.64
68594;BME280;55563;52.416;13.548;2022-09-01T09:37:41;101885.22;;;20.82;50.81
68594;BME280;55563;52.416;13.548;2022-09-01T09:39:41;101876.53;;;21.04;51.03
68594;BME280;55563;52.416;13.548;2022-09-01T09:41:43;101886.22;;;20.86;51.83
68594;BME280;55563;52.416;13.548;2022-09-01T09:44:14;101877.91;;;21.15;52.75
68594;BME280;55563;52.416;13.548;2022-09-01T09:48:40;101878.63;;;21.70;52.49
68594;BME280;55563;52.416;13.548;2022-09-01T09:50:41;101880.22;;;21.22;51.64
68594;BME280;55563;52.416;13.548;2022-09-01T09:52:43;101875.81;;;21.53;50.12
68594;BME280;55563;52.416;13.548;2022-09-01T09:55:05;101870.75;;;21.52;49.90
68594;BME280;55563;52.416;13.548;2022-09-01T09:59:28;101881.63;;;21.19;50.69
68594;BME280;55563;52.416;13.548;2022-09-01T10:01:29;101873.13;;;21.53;51.08
68594;BME280;55563;52.416;13.548;2022-09-01T10:03:34;101875.63;;;21.09;50.00
68594;BME280;55563;52.416;13.548;2022-09-01T10:05:40;101873.38;;;20.75;51.33
68594;BME280;55563;52.416;13.548;2022-09-01T10:07:41;101873.06;;;20.90;50.31
68594;BME280;55563;52.416;13.548;2022-09-01T10:09:42;101878.22;;;21.00;49.61
68594;BME280;55563;52.416;13.548;2022-09-01T10:11:46;101883.28;;;21.29;48.75
68594;BME280;55563;52.416;13.548;2022-09-01T10:13:48;101879.00;;;21.42;49.77
68594;BME280;55563;52.416;13.548;2022-09-01T10:15:51;101871.25;;;20.58;50.36
68594;BME280;55563;52.416;13.548;2022-09-01T10:17:53;101870.00;;;20.83;48.26
68594;BME280;55563;52.416;13.548;2022-09-01T10:19:58;101873.53;;;21.47;49.78
68594;BME280;55563;52.416;13.548;2022-09-01T10:22:04;101879.22;;;21.18;50.03
68594;BME280;55563;52.416;13.548;2022-09-01T10:24:29;101877.72;;;21.12;50.00
68594;BME280;55563;52.416;13.548;2022-09-01T10:26:31;101865.34;;;21.65;50.13
68594;BME280;55563;52.416;13.548;2022-09-01T10:28:45;101869.78;;;22.06;49.35
68594;BME280;55563;52.416;13.548;2022-09-01T10:30:47;101862.31;;;22.87;48.77
68594;BME280;55563;52.416;13.548;2022-09-01T10:32:49;101859.38;;;22.66;49.46
68594;BME280;55563;52.416;13.548;2022-09-01T10:34:52;101861.66;;;21.97;48.31
68594;BME280;55563;52.416;13.548;2022-09-01T10:36:53;101858.22;;;22.19;47.92
68594;BME280;55563;52.416;13.548;2022-09-01T10:38:54;101868.13;;;22.18;50.26
68594;BME280;55563;52.416;13.548;2022-09-01T10:40:57;101868.31;;;22.00;47.53
68594;BME280;55563;52.416;13.548;2022-09-01T10:43:35;101868.13;;;21.60;48.23
68594;BME280;55563;52.416;13.548;2022-09-01T10:45:38;101856.03;;;21.99;48.10
68594;BME280;55563;52.416;13.548;2022-09-01T10:47:39;101854.13;;;21.41;48.46
68594;BME280;55563;52.416;13.548;2022-09-01T10:51:56;101864.25;;;20.89;49.59
68594;BME280;55563;52.416;13.548;2022-09-01T10:53:58;101866.81;;;20.67;49.88
68594;BME280;55563;52.416;13.548;2022-09-01T11:00:52;101856.72;;;20.78;50.00
68594;BME280;55563;52.416;13.548;2022-09-01T11:05:18;101867.91;;;21.35;48.77